Time;durP1;ratioP1;P1;durP2;ratioP2;P2;SDS_P1;SDS_P2;PMS_P1;PMS_P2;Temp;Humidity;BMP_temperature;BMP_pressure;BME280_temperature;BME280_humidity;BME280_pressure;Samples;Min_cycle;Max_cycle;Signal;HPM_P1;HPM_P2
2022/08/16 00:01:34;;;;;;;10.80;7.25;;;22.20;97.80;;;;;;4214736;28;20550;-83
2022/08/16 00:03:34;;;;;;;9.88;6.88;;;22.10;97.80;;;;;;4250209;27;20039;-84
2022/08/16 00:05:36;;;;;;;13.38;7.35;;;22.10;98.00;;;;;;4249398;27;20067;-83
2022/08/16 00:07:39;;;;;;;11.50;6.82;;;22.10;98.40;;;;;;4249749;27;20043;-83
2022/08/16 00:09:40;;;;;;;11.43;7.78;;;22.10;98.20;;;;;;4231261;28;20061;-82
2022/08/16 00:11:43;;;;;;;18.75;7.97;;;22.10;98.30;;;;;;4249903;27;20445;-83
2022/08/16 00:13:45;;;;;;;11.82;7.97;;;22.10;98.30;;;;;;4231113;28;20055;-84
2022/08/16 00:15:48;;;;;;;12.48;7.57;;;22.00;98.40;;;;;;4240267;27;20105;-86
2022/08/16 00:17:49;;;;;;;15.77;8.43;;;22.00;98.40;;;;;;4248576;27;20035;-85
2022/08/16 00:19:52;;;;;;;14.75;8.52;;;22.00;98.50;;;;;;4248140;27;20155;-85
2022/08/16 00:21:54;;;;;;;13.25;7.68;;;22.00;98.60;;;;;;4248496;27;20135;-85
2022/08/16 00:23:56;;;;;;;11.95;7.65;;;22.00;98.60;;;;;;4247957;27;20062;-84
2022/08/16 00:25:56;;;;;;;12.60;8.38;;;22.00;98.70;;;;;;4249086;27;20051;-83
2022/08/16 00:27:57;;;;;;;12.32;7.60;;;22.00;98.90;;;;;;4249229;27;20126;-84
2022/08/16 00:29:58;;;;;;;11.40;8.07;;;22.00;98.90;;;;;;4265936;27;20046;-85
2022/08/16 00:32:02;;;;;;;15.13;8.70;;;21.90;99.00;;;;;;4267536;27;20039;-84
2022/08/16 00:34:03;;;;;;;13.82;8.65;;;21.90;99.10;;;;;;4267163;27;20072;-83
2022/08/16 00:36:04;;;;;;;13.70;8.48;;;21.90;99.30;;;;;;4266974;27;20110;-83
2022/08/16 00:38:05;;;;;;;15.35;8.60;;;21.90;99.40;;;;;;4266622;27;20039;-83
2022/08/16 00:40:08;;;;;;;10.80;8.10;;;21.90;99.50;;;;;;4264218;27;20117;-82
2022/08/16 00:42:09;;;;;;;10.27;7.38;;;21.90;99.60;;;;;;4231136;27;20523;-82
2022/08/16 00:44:11;;;;;;;11.50;8.00;;;21.90;99.70;;;;;;4230333;27;20039;-82
2022/08/16 00:46:28;;;;;;;11.35;7.90;;;21.90;99.80;;;;;;4248207;27;20031;-82
2022/08/16 00:48:30;;;;;;;10.35;8.27;;;21.90;99.90;;;;;;4248632;27;20401;-83
2022/08/16 00:50:33;;;;;;;14.38;7.95;;;21.90;99.90;;;;;;4238715;27;20039;-82
2022/08/16 00:52:34;;;;;;;11.20;8.27;;;21.90;99.90;;;;;;4244721;27;20110;-82
2022/08/16 00:54:36;;;;;;;13.07;8.10;;;21.90;99.90;;;;;;4246379;27;20043;-82
2022/08/16 00:56:39;;;;;;;13.93;8.38;;;21.90;99.90;;;;;;4230858;28;20063;-82
2022/08/16 00:58:43;;;;;;;12.48;7.95;;;21.90;99.90;;;;;;4245449;27;20046;-83
2022/08/16 01:00:46;;;;;;;11.52;7.82;;;21.80;99.90;;;;;;4247807;27;20062;-83
2022/08/16 01:02:47;;;;;;;12.10;8.38;;;21.80;99.90;;;;;;4248681;27;20050;-82
2022/08/16 01:04:49;;;;;;;13.27;8.20;;;21.80;99.90;;;;;;4248657;27;20078;-82
2022/08/16 01:06:50;;;;;;;15.80;8.15;;;21.80;99.90;;;;;;4249255;27;20095;-83
2022/08/16 01:08:55;;;;;;;12.48;8.00;;;21.80;99.90;;;;;;4249090;27;20040;-83
2022/08/16 01:10:56;;;;;;;17.45;8.85;;;21.80;99.90;;;;;;4248446;27;20406;-84
2022/08/16 01:12:58;;;;;;;14.00;9.18;;;21.80;99.90;;;;;;4249373;27;20069;-83
2022/08/16 01:15:00;;;;;;;12.40;8.70;;;21.80;99.90;;;;;;4249431;27;20098;-82
2022/08/16 01:17:02;;;;;;;11.02;8.43;;;21.70;99.90;;;;;;4247622;27;20058;-82
2022/08/16 01:19:10;;;;;;;11.93;8.98;;;21.70;99.90;;;;;;4247892;27;20039;-82
2022/08/16 01:21:23;;;;;;;16.27;9.68;;;21.70;99.90;;;;;;4248146;27;20078;-83
2022/08/16 01:24:11;;;;;;;13.13;10.27;;;21.70;99.90;;;;;;4235099;27;20134;-82
2022/08/16 01:26:12;;;;;;;15.90;10.90;;;21.70;99.90;;;;;;4240222;27;20051;-84
2022/08/16 01:28:16;;;;;;;14.95;9.95;;;21.70;99.90;;;;;;4231504;27;20122;-84
2022/08/16 01:30:28;;;;;;;15.07;10.35;;;21.60;99.90;;;;;;4212439;28;20073;-84
2022/08/16 01:32:31;;;;;;;12.63;9.27;;;21.60;99.90;;;;;;4230655;28;20035;-83
2022/08/16 01:34:33;;;;;;;14.38;10.43;;;21.60;99.90;;;;;;4232466;27;20047;-83
2022/08/16 01:36:35;;;;;;;15.38;11.32;;;21.60;99.90;;;;;;4248476;27;20043;-83
2022/08/16 01:38:39;;;;;;;17.25;12.15;;;21.60;99.90;;;;;;4248627;27;20122;-83
2022/08/16 01:40:39;;;;;;;17.95;11.15;;;21.60;99.90;;;;;;4248240;27;20047;-83
2022/08/16 01:42:41;;;;;;;20.33;12.48;;;21.50;99.90;;;;;;4234990;27;20050;-84
2022/08/16 01:44:41;;;;;;;18.80;12.50;;;21.50;99.90;;;;;;4229930;28;20103;-84
2022/08/16 01:46:45;;;;;;;19.75;12.60;;;21.40;99.90;;;;;;4230108;28;20502;-84
2022/08/16 01:48:47;;;;;;;18.02;12.60;;;21.40;99.90;;;;;;4229908;28;20115;-83
2022/08/16 01:50:50;;;;;;;19.10;11.88;;;21.40;99.90;;;;;;4234813;27;20086;-83
2022/08/16 01:52:53;;;;;;;23.25;12.38;;;21.40;99.90;;;;;;4231201;28;20399;-83
2022/08/16 01:54:54;;;;;;;17.42;12.90;;;21.40;99.90;;;;;;4232358;27;20047;-84
2022/08/16 01:56:56;;;;;;;18.38;12.75;;;21.40;99.90;;;;;;4248476;27;20046;-84
2022/08/16 01:58:59;;;;;;;17.05;12.23;;;21.30;99.90;;;;;;4248423;27;20052;-84
2022/08/16 02:00:59;;;;;;;16.33;11.13;;;21.30;99.90;;;;;;4247036;27;20047;-84
2022/08/16 02:03:01;;;;;;;21.20;12.02;;;21.30;99.90;;;;;;4248204;27;20055;-84
2022/08/16 02:05:03;;;;;;;16.85;11.57;;;21.30;99.90;;;;;;4246911;27;20047;-84
2022/08/16 02:07:07;;;;;;;16.23;10.40;;;21.30;99.90;;;;;;4248353;27;20127;-85
2022/08/16 02:09:11;;;;;;;17.75;12.20;;;21.30;99.90;;;;;;4247202;27;20047;-84
2022/08/16 02:11:13;;;;;;;17.30;10.55;;;21.20;99.90;;;;;;4248098;27;20206;-84
2022/08/16 02:13:14;;;;;;;14.98;11.00;;;21.20;99.90;;;;;;4234952;27;20122;-84
2022/08/16 02:15:17;;;;;;;19.00;12.05;;;21.20;99.90;;;;;;4230755;28;20089;-84
2022/08/16 02:17:17;;;;;;;16.75;11.40;;;21.10;99.90;;;;;;4230937;28;20040;-84
2022/08/16 02:19:19;;;;;;;18.48;10.82;;;21.10;99.90;;;;;;4230378;28;20128;-83
2022/08/16 02:21:21;;;;;;;17.15;10.95;;;21.10;99.90;;;;;;4230670;28;20449;-84
2022/08/16 02:23:22;;;;;;;16.70;11.40;;;21.10;99.90;;;;;;4230786;28;20039;-85
2022/08/16 02:25:23;;;;;;;14.88;11.40;;;21.10;99.90;;;;;;4231139;27;20067;-84
2022/08/16 02:27:24;;;;;;;16.65;11.38;;;21.00;99.90;;;;;;4231510;28;20043;-84
2022/08/16 02:29:25;;;;;;;16.58;11.70;;;21.00;99.90;;;;;;4244584;27;20042;-84
2022/08/16 02:31:26;;;;;;;16.85;12.45;;;21.00;99.90;;;;;;4247346;27;20115;-84
2022/08/16 02:33:27;;;;;;;19.33;11.60;;;21.00;99.90;;;;;;4243145;27;20472;-84
2022/08/16 02:35:27;;;;;;;17.83;11.35;;;21.10;99.90;;;;;;4246130;27;20039;-84
2022/08/16 02:37:28;;;;;;;19.15;12.65;;;21.00;99.90;;;;;;4247506;27;20112;-83
2022/08/16 02:39:29;;;;;;;19.02;12.27;;;21.00;99.90;;;;;;4247554;27;20058;-83
2022/08/16 02:41:31;;;;;;;17.83;11.98;;;21.00;99.90;;;;;;4247352;28;20491;-83
2022/08/16 02:43:35;;;;;;;18.13;11.50;;;21.00;99.90;;;;;;4226644;28;20513;-83
2022/08/16 02:45:35;;;;;;;19.67;12.68;;;21.10;99.90;;;;;;4242510;27;20134;-84
2022/08/16 02:47:36;;;;;;;17.63;11.95;;;21.10;99.90;;;;;;4247367;28;20054;-83
2022/08/16 02:49:38;;;;;;;17.85;12.77;;;21.10;99.90;;;;;;4229250;28;20032;-83
2022/08/16 02:51:40;;;;;;;18.30;12.15;;;21.00;99.90;;;;;;4260341;27;20149;-84
2022/08/16 02:53:44;;;;;;;17.90;12.45;;;21.00;99.90;;;;;;4264395;27;20536;-83
2022/08/16 02:55:45;;;;;;;19.20;12.30;;;21.10;99.90;;;;;;4264401;27;20039;-84
2022/08/16 02:57:46;;;;;;;16.45;11.98;;;21.00;99.90;;;;;;4264377;27;20521;-84
2022/08/16 02:59:47;;;;;;;13.77;11.57;;;21.00;99.90;;;;;;4246065;28;20035;-84
2022/08/16 03:01:48;;;;;;;19.55;12.70;;;21.00;99.90;;;;;;4264842;27;20545;-84
2022/08/16 03:03:49;;;;;;;18.45;13.35;;;21.00;99.90;;;;;;4264680;27;20375;-85
2022/08/16 03:05:50;;;;;;;15.95;12.35;;;21.00;99.90;;;;;;4264184;27;20039;-85
2022/08/16 03:07:51;;;;;;;17.90;12.63;;;21.00;99.90;;;;;;4262365;27;20046;-85
2022/08/16 03:09:52;;;;;;;20.33;13.00;;;21.00;99.90;;;;;;4256723;27;20061;-85
2022/08/16 03:11:53;;;;;;;19.55;13.40;;;21.00;99.90;;;;;;4237116;28;20087;-84
2022/08/16 03:13:55;;;;;;;20.88;13.25;;;21.00;99.90;;;;;;4229037;28;20039;-84
2022/08/16 03:15:55;;;;;;;20.98;12.90;;;21.00;99.90;;;;;;4228901;28;20503;-84
2022/08/16 03:17:56;;;;;;;18.60;13.35;;;21.00;99.90;;;;;;4246875;28;20047;-84
2022/08/16 03:19:57;;;;;;;19.17;12.93;;;20.90;99.90;;;;;;4211994;28;20044;-85
2022/08/16 03:21:58;;;;;;;23.85;13.73;;;20.90;99.90;;;;;;4247359;28;20053;-84
2022/08/16 03:23:59;;;;;;;20.20;13.38;;;20.90;99.90;;;;;;4229449;28;20071;-84
2022/08/16 03:26:00;;;;;;;19.70;13.02;;;20.90;99.90;;;;;;4260277;27;20398;-85
2022/08/16 03:28:02;;;;;;;22.20;12.90;;;20.80;99.90;;;;;;4245728;28;20075;-84
2022/08/16 03:30:07;;;;;;;18.58;13.27;;;20.90;99.90;;;;;;4245740;28;20388;-84
2022/08/16 03:32:08;;;;;;;18.38;13.02;;;20.60;99.90;;;;;;4245379;28;20134;-84
2022/08/16 03:34:09;;;;;;;20.75;13.40;;;20.80;99.90;;;;;;4245766;28;20047;-84
2022/08/16 03:36:09;;;;;;;18.33;12.75;;;20.90;99.90;;;;;;4264115;27;20570;-83
2022/08/16 03:38:14;;;;;;;19.48;12.55;;;20.90;99.90;;;;;;4245613;28;20502;-84
2022/08/16 03:40:15;;;;;;;18.65;13.38;;;20.80;99.90;;;;;;4217497;28;20504;-84
2022/08/16 03:42:16;;;;;;;16.63;11.90;;;20.80;99.90;;;;;;4250600;27;20045;-84
2022/08/16 03:44:22;;;;;;;18.20;12.40;;;20.80;99.90;;;;;;4245369;27;20086;-83
2022/08/16 03:46:23;;;;;;;21.73;12.98;;;20.70;99.90;;;;;;4264146;27;20050;-84
2022/08/16 03:48:31;;;;;;;15.40;11.35;;;20.70;99.90;;;;;;4264089;27;20414;-84
2022/08/16 03:50:34;;;;;;;21.40;12.63;;;20.70;99.90;;;;;;4248764;27;20495;-84
2022/08/16 03:52:35;;;;;;;16.80;12.27;;;20.70;99.90;;;;;;4251913;27;20051;-84
2022/08/16 03:54:35;;;;;;;15.60;11.95;;;20.60;99.90;;;;;;4250189;27;20082;-84
2022/08/16 03:56:36;;;;;;;18.00;11.65;;;20.60;99.90;;;;;;4231134;28;20122;-85
2022/08/16 03:58:38;;;;;;;16.98;12.50;;;20.60;99.90;;;;;;4231589;28;20047;-84
2022/08/16 04:00:39;;;;;;;19.95;12.95;;;20.50;99.90;;;;;;4253417;27;20070;-84
2022/08/16 04:02:41;;;;;;;20.92;13.57;;;20.50;99.90;;;;;;4232032;28;20489;-85
2022/08/16 04:04:42;;;;;;;18.75;12.68;;;20.50;99.90;;;;;;4231812;28;20043;-84
2022/08/16 04:06:44;;;;;;;22.00;14.07;;;20.50;99.90;;;;;;4249129;27;20089;-85
2022/08/16 04:08:44;;;;;;;18.73;12.90;;;20.40;99.90;;;;;;4249898;27;20043;-85
2022/08/16 04:10:45;;;;;;;19.80;14.00;;;20.40;99.90;;;;;;4246981;27;20062;-85
2022/08/16 04:12:46;;;;;;;20.48;13.38;;;20.30;99.90;;;;;;4248187;27;20074;-84
2022/08/16 04:14:48;;;;;;;23.35;13.60;;;20.30;99.90;;;;;;4247681;27;20043;-84
2022/08/16 04:16:48;;;;;;;20.35;13.60;;;20.20;99.90;;;;;;4242326;27;20125;-84
2022/08/16 04:18:49;;;;;;;19.08;14.00;;;20.20;99.90;;;;;;4247493;27;20047;-84
2022/08/16 04:20:50;;;;;;;25.25;13.40;;;20.20;99.90;;;;;;4247981;27;20113;-84
2022/08/16 04:22:52;;;;;;;22.83;13.60;;;20.10;99.90;;;;;;4266622;27;20054;-84
2022/08/16 04:24:53;;;;;;;19.20;13.68;;;20.10;99.90;;;;;;4247728;27;20126;-84
2022/08/16 04:26:54;;;;;;;21.67;13.45;;;20.10;99.90;;;;;;4231472;28;20538;-84
2022/08/16 04:28:55;;;;;;;21.30;13.20;;;20.10;99.90;;;;;;4249061;27;20122;-84
2022/08/16 04:30:55;;;;;;;19.25;12.40;;;20.10;99.90;;;;;;4249346;27;20043;-84
2022/08/16 04:32:56;;;;;;;21.17;14.02;;;20.00;99.90;;;;;;4214384;28;20048;-84
2022/08/16 04:34:57;;;;;;;18.15;13.20;;;20.00;99.90;;;;;;4230644;27;20047;-84
2022/08/16 04:36:58;;;;;;;29.08;14.50;;;20.00;99.90;;;;;;4247830;27;20434;-84
2022/08/16 04:38:58;;;;;;;18.75;13.40;;;20.10;99.90;;;;;;4230538;28;20039;-83
2022/08/16 04:40:59;;;;;;;18.70;13.13;;;20.00;99.90;;;;;;4249185;27;20050;-84
2022/08/16 04:43:00;;;;;;;20.70;12.57;;;19.90;99.90;;;;;;4231307;28;20043;-83
2022/08/16 04:45:03;;;;;;;23.55;14.18;;;20.00;99.90;;;;;;4230434;28;20051;-85
2022/08/16 04:47:03;;;;;;;25.60;13.80;;;20.00;99.90;;;;;;4230767;28;20570;-84
2022/08/16 04:49:06;;;;;;;21.55;13.85;;;19.90;99.90;;;;;;4230594;28;20048;-84
2022/08/16 04:51:08;;;;;;;20.63;13.63;;;20.00;99.90;;;;;;4230755;28;20079;-84
2022/08/16 04:53:09;;;;;;;24.50;13.43;;;19.90;99.90;;;;;;4250821;27;20046;-84
2022/08/16 04:55:14;;;;;;;23.05;14.27;;;19.90;99.90;;;;;;4265726;27;20182;-84
2022/08/16 04:57:14;;;;;;;21.10;13.93;;;19.90;99.90;;;;;;4261326;27;20043;-85
2022/08/16 04:59:17;;;;;;;19.85;13.80;;;19.90;99.90;;;;;;4248036;27;20099;-85
2022/08/16 05:01:18;;;;;;;20.40;14.57;;;19.80;99.90;;;;;;4253268;27;20399;-85
2022/08/16 05:03:19;;;;;;;21.63;14.02;;;19.80;99.90;;;;;;4265813;27;20043;-84
2022/08/16 05:05:21;;;;;;;27.88;14.55;;;19.80;99.90;;;;;;4264929;27;20125;-85
2022/08/16 05:07:22;;;;;;;19.92;13.52;;;19.80;99.90;;;;;;4265700;27;20470;-84
2022/08/16 05:09:22;;;;;;;21.33;13.68;;;19.80;99.90;;;;;;4265617;27;20031;-84
2022/08/16 05:11:25;;;;;;;19.48;13.35;;;19.80;99.90;;;;;;4264463;27;20043;-84
2022/08/16 05:13:26;;;;;;;25.02;13.40;;;19.80;99.90;;;;;;4241421;27;20428;-84
2022/08/16 05:15:27;;;;;;;23.90;14.60;;;19.80;99.90;;;;;;4248520;27;20043;-86
2022/08/16 05:17:28;;;;;;;20.35;13.48;;;19.80;99.90;;;;;;4251885;27;20047;-87
2022/08/16 05:19:30;;;;;;;19.20;13.95;;;19.80;99.90;;;;;;4229913;28;20075;-87
2022/08/16 05:21:34;;;;;;;21.02;13.02;;;19.80;99.90;;;;;;4248886;27;20046;-86
2022/08/16 05:23:34;;;;;;;22.10;14.13;;;19.90;99.90;;;;;;4248248;27;20043;-86
2022/08/16 05:25:36;;;;;;;21.45;13.45;;;19.90;99.90;;;;;;4248781;27;20502;-86
2022/08/16 05:27:39;;;;;;;19.30;13.00;;;19.90;99.90;;;;;;4248663;27;20408;-86
2022/08/16 05:29:41;;;;;;;17.25;12.65;;;19.90;99.90;;;;;;4238533;27;20113;-86
2022/08/16 05:31:42;;;;;;;22.00;13.00;;;20.00;99.90;;;;;;4232586;28;20108;-85
2022/08/16 05:33:44;;;;;;;20.67;12.88;;;20.00;99.90;;;;;;4230637;28;20047;-85
2022/08/16 05:35:47;;;;;;;21.83;13.63;;;20.00;99.90;;;;;;4243836;27;20067;-86
2022/08/16 05:37:48;;;;;;;22.50;13.65;;;20.10;99.90;;;;;;4221035;28;20048;-86
2022/08/16 05:39:50;;;;;;;21.85;12.75;;;20.10;99.90;;;;;;4235859;28;20088;-86
2022/08/16 05:41:52;;;;;;;17.25;11.93;;;20.20;99.90;;;;;;4220666;28;20519;-85
2022/08/16 05:43:52;;;;;;;18.63;12.38;;;20.20;99.90;;;;;;4251668;27;20043;-82
2022/08/16 05:45:54;;;;;;;17.58;11.80;;;20.20;99.90;;;;;;4229953;28;20059;-83
2022/08/16 05:47:55;;;;;;;20.13;12.95;;;20.30;99.90;;;;;;4233465;28;20124;-83
2022/08/16 05:49:56;;;;;;;17.77;12.68;;;20.30;99.90;;;;;;4235054;28;20023;-84
2022/08/16 05:51:58;;;;;;;22.63;13.77;;;20.30;99.90;;;;;;4230088;27;20051;-83
2022/08/16 05:53:59;;;;;;;18.67;12.63;;;20.40;99.90;;;;;;4235565;27;20075;-83
2022/08/16 05:56:00;;;;;;;22.95;12.55;;;20.40;99.90;;;;;;4246042;27;20055;-85
2022/08/16 05:58:09;;;;;;;24.75;13.15;;;20.50;99.90;;;;;;4248080;27;20115;-85
2022/08/16 06:00:11;;;;;;;;;;;20.50;99.90;;;;;;4246990;27;20039;-84
2022/08/16 06:02:12;;;;;;;18.05;11.15;;;20.60;99.90;;;;;;4239633;27;20556;-85
2022/08/16 06:04:13;;;;;;;18.98;11.35;;;20.60;99.90;;;;;;4244517;27;20046;-84
2022/08/16 06:06:14;;;;;;;16.88;11.07;;;20.70;99.90;;;;;;4247043;27;20037;-86
2022/08/16 06:08:15;;;;;;;19.67;11.20;;;20.70;99.90;;;;;;4246975;27;20031;-84
2022/08/16 06:10:18;;;;;;;17.40;11.63;;;20.80;99.90;;;;;;4229000;28;20040;-84
2022/08/16 06:12:19;;;;;;;17.42;10.75;;;20.80;99.90;;;;;;4245873;27;20046;-84
2022/08/16 06:14:19;;;;;;;16.17;10.90;;;20.90;99.90;;;;;;4246454;27;20034;-84
2022/08/16 06:16:21;;;;;;;15.10;10.43;;;21.00;99.90;;;;;;4250884;27;20473;-82
2022/08/16 06:18:22;;;;;;;15.52;10.45;;;20.90;99.90;;;;;;4246081;27;20051;-84
2022/08/16 06:20:25;;;;;;;16.80;10.75;;;21.10;99.90;;;;;;4248502;27;20070;-83
2022/08/16 06:22:28;;;;;;;16.52;10.10;;;21.20;99.90;;;;;;4251027;27;20483;-84
2022/08/16 06:24:28;;;;;;;19.80;10.65;;;21.30;99.90;;;;;;4248573;27;20124;-84
2022/08/16 06:26:29;;;;;;;14.05;9.73;;;21.30;99.90;;;;;;4248448;27;20040;-84
2022/08/16 06:28:31;;;;;;;15.82;10.60;;;21.40;99.90;;;;;;4248103;27;20037;-85
2022/08/16 06:30:32;;;;;;;14.77;9.95;;;21.40;99.90;;;;;;4240451;27;20040;-83
2022/08/16 06:32:33;;;;;;;14.82;10.07;;;21.40;99.90;;;;;;4215341;28;20085;-83
2022/08/16 06:34:34;;;;;;;18.00;9.82;;;21.50;99.90;;;;;;4232581;28;20055;-83
2022/08/16 06:36:35;;;;;;;17.40;9.98;;;21.60;99.90;;;;;;4241063;27;20049;-83
2022/08/16 06:38:36;;;;;;;13.48;9.63;;;21.60;99.80;;;;;;4251198;27;20079;-83
2022/08/16 06:40:38;;;;;;;12.00;9.00;;;21.60;99.60;;;;;;4250188;27;20501;-84
2022/08/16 06:42:39;;;;;;;13.07;9.23;;;21.80;99.30;;;;;;4246972;28;20059;-84
2022/08/16 06:44:40;;;;;;;13.73;9.20;;;21.80;99.00;;;;;;4245583;27;20566;-85
2022/08/16 06:46:41;;;;;;;13.23;8.85;;;21.90;98.90;;;;;;4253680;27;20043;-84
2022/08/16 06:48:44;;;;;;;16.27;9.57;;;21.90;98.50;;;;;;4246883;28;20043;-85
2022/08/16 06:50:49;;;;;;;16.65;8.98;;;22.00;98.30;;;;;;4250908;27;20066;-84
2022/08/16 06:52:49;;;;;;;15.68;9.65;;;22.10;98.00;;;;;;4247200;27;20106;-85
2022/08/16 06:54:50;;;;;;;12.32;9.45;;;22.10;97.90;;;;;;4247350;28;20046;-85
2022/08/16 06:56:53;;;;;;;12.68;8.70;;;22.20;97.80;;;;;;4247736;28;20050;-84
2022/08/16 06:58:55;;;;;;;14.82;9.32;;;22.20;97.30;;;;;;4256039;27;20081;-83
2022/08/16 07:00:55;;;;;;;15.75;8.95;;;22.30;97.20;;;;;;4247433;28;20138;-86
2022/08/16 07:02:57;;;;;;;15.77;9.32;;;22.30;97.10;;;;;;4271616;27;20386;-88
2022/08/16 07:04:58;;;;;;;15.95;9.55;;;22.40;96.90;;;;;;4243102;27;20093;-83
2022/08/16 07:07:00;;;;;;;17.45;9.98;;;22.40;96.70;;;;;;4263216;27;20047;-83
2022/08/16 07:09:02;;;;;;;14.50;9.75;;;22.50;96.60;;;;;;4262858;27;20065;-83
2022/08/16 07:11:04;;;;;;;15.57;10.02;;;22.50;96.40;;;;;;4230431;28;20565;-82
2022/08/16 07:13:04;;;;;;;18.85;10.35;;;22.60;96.40;;;;;;4262925;27;20039;-82
2022/08/16 07:15:07;;;;;;;20.92;10.38;;;22.70;96.20;;;;;;4269449;27;20175;-84
2022/08/16 07:17:08;;;;;;;15.27;9.55;;;22.70;96.10;;;;;;4265953;27;20054;-85
2022/08/16 07:19:10;;;;;;;14.73;9.63;;;22.80;96.00;;;;;;4245430;28;20047;-85
2022/08/16 07:21:14;;;;;;;12.43;9.40;;;22.90;95.80;;;;;;4247800;28;20115;-84
2022/08/16 07:23:15;;;;;;;14.68;9.70;;;22.90;95.40;;;;;;4267310;27;20526;-84
2022/08/16 07:25:17;;;;;;;14.38;10.02;;;23.00;95.30;;;;;;4249332;27;20487;-85
2022/08/16 07:27:19;;;;;;;14.38;9.18;;;23.00;95.20;;;;;;4260853;27;20051;-85
2022/08/16 07:29:20;;;;;;;12.15;8.52;;;23.10;95.00;;;;;;4239664;27;20039;-87
2022/08/16 07:31:20;;;;;;;11.93;7.93;;;23.10;94.90;;;;;;4250061;27;20095;-87
2022/08/16 07:33:24;;;;;;;14.88;8.57;;;23.20;94.80;;;;;;4242541;27;20117;-87
2022/08/16 07:35:25;;;;;;;13.00;7.55;;;23.30;94.50;;;;;;4243324;27;20118;-87
2022/08/16 07:37:29;;;;;;;12.27;8.20;;;23.40;94.40;;;;;;4235798;27;20059;-86
2022/08/16 07:39:29;;;;;;;14.07;8.48;;;23.60;94.00;;;;;;4237629;27;20488;-86
2022/08/16 07:41:32;;;;;;;12.63;8.50;;;23.30;93.50;;;;;;4237684;27;20092;-86
2022/08/16 07:43:33;;;;;;;11.45;8.02;;;23.70;93.30;;;;;;4260888;27;20078;-86
2022/08/16 07:45:35;;;;;;;15.32;8.05;;;23.70;93.20;;;;;;4227383;28;20515;-87
2022/08/16 07:47:36;;;;;;;13.88;8.70;;;23.80;92.90;;;;;;4244865;27;20031;-85
2022/08/16 07:49:37;;;;;;;12.57;8.70;;;23.80;92.80;;;;;;4259015;27;20570;-85
2022/08/16 07:51:51;;;;;;;12.32;8.45;;;23.80;92.60;;;;;;4278957;27;20435;-85
2022/08/16 07:53:52;;;;;;;13.40;8.30;;;23.90;92.30;;;;;;4238694;28;20428;-86
2022/08/16 07:55:52;;;;;;;14.00;7.80;;;23.90;92.20;;;;;;4276795;27;20137;-85
2022/08/16 07:57:53;;;;;;;11.77;8.05;;;24.00;92.00;;;;;;4261359;27;20596;-85
2022/08/16 07:59:58;;;;;;;11.82;8.00;;;24.10;92.00;;;;;;4262706;27;20490;-84
2022/08/16 08:01:59;;;;;;;12.70;7.35;;;24.20;91.60;;;;;;4261393;27;20121;-85
2022/08/16 08:04:02;;;;;;;10.77;7.68;;;24.20;91.40;;;;;;4245636;28;20054;-84
2022/08/16 08:06:03;;;;;;;11.57;7.40;;;24.30;91.30;;;;;;4226919;28;20557;-85
2022/08/16 08:08:05;;;;;;;16.23;8.15;;;24.40;91.10;;;;;;4231824;27;20047;-86
2022/08/16 08:10:07;;;;;;;12.27;8.00;;;24.40;90.90;;;;;;4265871;27;20043;-86
2022/08/16 08:12:08;;;;;;;13.20;8.15;;;24.50;90.50;;;;;;4227871;28;20080;-85
2022/08/16 08:14:11;;;;;;;13.75;8.32;;;24.60;90.50;;;;;;4270820;27;20113;-86
2022/08/16 08:16:13;;;;;;;9.73;7.80;;;24.60;90.40;;;;;;4214874;28;20036;-86
2022/08/16 08:18:13;;;;;;;12.85;7.85;;;24.60;90.30;;;;;;4269134;27;20049;-85
2022/08/16 08:20:18;;;;;;;11.70;6.93;;;24.80;90.10;;;;;;4230389;27;20403;-85
2022/08/16 08:22:19;;;;;;;12.63;7.43;;;25.00;90.00;;;;;;4240125;28;20158;-85
2022/08/16 08:24:22;;;;;;;13.25;8.10;;;25.00;88.90;;;;;;4212440;28;20079;-86
2022/08/16 08:26:24;;;;;;;14.10;7.80;;;25.10;88.50;;;;;;4233593;28;20059;-86
2022/08/16 08:28:24;;;;;;;15.07;8.65;;;25.10;88.20;;;;;;4245087;27;20476;-86
2022/08/16 08:30:25;;;;;;;14.90;7.65;;;25.20;87.90;;;;;;4243893;27;20054;-86
2022/08/16 08:32:27;;;;;;;10.43;7.47;;;25.30;87.30;;;;;;4252892;27;20406;-86
2022/08/16 08:34:28;;;;;;;13.20;8.07;;;25.40;87.20;;;;;;4248136;27;20036;-86
2022/08/16 08:36:31;;;;;;;11.63;7.47;;;25.60;87.20;;;;;;4236940;28;20054;-86
2022/08/16 08:38:35;;;;;;;13.43;7.10;;;25.70;86.80;;;;;;4213719;28;20041;-85
2022/08/16 08:40:37;;;;;;;13.52;7.78;;;25.90;86.70;;;;;;4237563;28;20462;-86
2022/08/16 08:42:42;;;;;;;10.85;7.35;;;26.00;86.20;;;;;;4230492;28;20137;-86
2022/08/16 08:44:43;;;;;;;11.35;7.55;;;26.10;85.70;;;;;;4241475;28;20047;-85
2022/08/16 08:46:43;;;;;;;13.23;8.55;;;26.20;85.20;;;;;;4261625;27;20445;-85
2022/08/16 08:48:45;;;;;;;14.05;7.47;;;26.20;84.50;;;;;;4248444;27;20036;-85
2022/08/16 08:50:45;;;;;;;12.70;7.93;;;26.30;84.40;;;;;;4226904;28;20113;-88
2022/08/16 08:52:47;;;;;;;10.70;6.53;;;26.50;84.30;;;;;;4242944;28;20519;-87
2022/08/16 08:54:48;;;;;;;6.85;5.50;;;26.50;83.40;;;;;;4238480;27;20071;-87
2022/08/16 08:56:50;;;;;;;13.07;7.60;;;26.60;83.40;;;;;;4233587;28;20058;-87
2022/08/16 08:58:51;;;;;;;9.55;6.22;;;26.80;83.00;;;;;;4251686;27;20044;-86
2022/08/16 09:00:52;;;;;;;14.48;6.65;;;26.80;81.90;;;;;;4255593;27;20562;-86
2022/08/16 09:02:53;;;;;;;8.80;5.55;;;26.90;81.50;;;;;;4222404;28;20054;-87
2022/08/16 09:04:54;;;;;;;9.15;5.75;;;27.00;80.90;;;;;;4203699;28;20075;-87
2022/08/16 09:06:56;;;;;;;9.13;5.60;;;27.00;79.50;;;;;;4211642;28;20095;-87
2022/08/16 09:08:58;;;;;;;10.63;6.07;;;27.00;78.80;;;;;;4228021;28;20047;-86
2022/08/16 09:11:00;;;;;;;7.30;5.47;;;27.00;78.80;;;;;;4239356;27;20046;-87
2022/08/16 09:13:01;;;;;;;6.93;5.35;;;27.00;78.20;;;;;;4228016;28;20055;-87
2022/08/16 09:15:03;;;;;;;9.95;4.88;;;27.10;77.90;;;;;;4262177;27;20093;-87
2022/08/16 09:17:05;;;;;;;10.88;6.05;;;27.10;76.90;;;;;;4203962;28;20459;-87
2022/08/16 09:19:06;;;;;;;6.88;4.93;;;27.20;76.90;;;;;;4211088;28;20078;-87
2022/08/16 09:21:07;;;;;;;7.30;4.80;;;27.30;77.00;;;;;;4236830;27;20044;-88
2022/08/16 09:23:07;;;;;;;9.00;5.30;;;27.60;76.70;;;;;;4226199;28;20047;-87
2022/08/16 09:25:09;;;;;;;7.35;4.80;;;27.70;75.50;;;;;;4233376;28;20079;-88
2022/08/16 09:27:12;;;;;;;7.75;4.50;;;27.80;74.40;;;;;;4250632;27;20067;-87
2022/08/16 09:29:12;;;;;;;6.07;3.97;;;27.80;73.10;;;;;;4249354;27;20051;-86
2022/08/16 09:31:14;;;;;;;5.13;3.47;;;27.80;72.50;;;;;;4232080;28;20045;-87
2022/08/16 09:33:18;;;;;;;6.60;4.18;;;27.90;72.10;;;;;;4215411;28;20054;-86
2022/08/16 09:35:22;;;;;;;6.78;3.88;;;27.80;71.40;;;;;;4234636;27;20105;-86
2022/08/16 09:37:23;;;;;;;5.95;3.63;;;27.90;71.10;;;;;;4233674;28;20044;-86
2022/08/16 09:39:25;;;;;;;5.38;3.90;;;27.90;70.90;;;;;;4198980;28;20055;-87
2022/08/16 09:41:26;;;;;;;8.75;3.90;;;28.00;70.90;;;;;;4233117;28;20089;-86
2022/08/16 09:43:26;;;;;;;6.57;4.00;;;28.20;69.70;;;;;;4230310;28;20490;-86
2022/08/16 09:45:27;;;;;;;5.80;4.05;;;28.20;69.30;;;;;;4198254;28;20051;-87
2022/08/16 09:47:28;;;;;;;9.43;4.28;;;28.20;69.30;;;;;;4232448;28;20043;-86
2022/08/16 09:49:29;;;;;;;5.07;3.58;;;28.40;68.90;;;;;;4228591;28;20058;-87
2022/08/16 09:51:30;;;;;;;4.50;4.10;;;28.60;67.90;;;;;;4253270;27;20111;-87
2022/08/16 09:53:31;;;;;;;5.55;3.83;;;28.50;66.20;;;;;;4241034;27;20043;-87
2022/08/16 09:55:32;;;;;;;8.25;4.25;;;28.60;66.60;;;;;;4237964;27;20051;-87
2022/08/16 09:57:33;;;;;;;27.85;5.78;;;28.60;66.20;;;;;;4233871;27;20051;-86
2022/08/16 09:59:34;;;;;;;6.95;3.75;;;28.70;66.00;;;;;;4228677;28;20048;-87
2022/08/16 10:01:37;;;;;;;13.25;5.13;;;28.90;66.10;;;;;;4216292;28;20399;-84
2022/08/16 10:03:38;;;;;;;10.55;5.80;;;29.20;65.80;;;;;;4227073;27;20075;-84
2022/08/16 10:05:42;;;;;;;5.55;4.32;;;29.20;65.40;;;;;;4238900;27;20578;-84
2022/08/16 10:07:46;;;;;;;6.63;4.93;;;29.30;66.20;;;;;;4216938;28;20044;-85
2022/08/16 10:09:48;;;;;;;5.40;4.50;;;29.50;65.50;;;;;;4208791;28;20606;-86
2022/08/16 10:14:13;;;;;;;7.72;3.97;;;29.80;64.30;;;;;;4232433;27;20039;-84
2022/08/16 10:16:15;;;;;;;6.13;4.82;;;29.90;64.20;;;;;;4244229;27;20123;-85
2022/08/16 10:18:17;;;;;;;5.78;4.55;;;29.90;63.40;;;;;;4213416;28;20101;-85
2022/08/16 10:20:20;;;;;;;9.23;4.60;;;29.90;62.40;;;;;;4219638;28;20047;-84
2022/08/16 10:22:21;;;;;;;11.30;4.40;;;29.90;61.90;;;;;;4238606;27;20511;-84
2022/08/16 10:24:26;;;;;;;10.07;5.15;;;30.20;61.90;;;;;;4229606;28;20047;-84
2022/08/16 10:26:29;;;;;;;11.73;5.22;;;30.30;61.30;;;;;;4247043;27;20536;-85